Time;durP1;ratioP1;P1;durP2;ratioP2;P2;SDS_P1;SDS_P2;PMS_P1;PMS_P2;Temp;Humidity;BMP_temperature;BMP_pressure;BME280_temperature;BME280_humidity;BME280_pressure;Samples;Min_cycle;Max_cycle;Signal;HPM_P1;HPM_P2
2023/12/11 00:01:03;;;;;;;0.95;0.65;;;9.90;99.90;;;;;;5026406;28;20711;-74
2023/12/11 00:03:29;;;;;;;2.00;0.68;;;9.90;99.90;;;;;;5010925;28;20417;-74
2023/12/11 00:05:54;;;;;;;1.52;0.32;;;9.80;99.90;;;;;;5027613;28;20033;-74
2023/12/11 00:08:20;;;;;;;0.57;0.30;;;9.80;99.90;;;;;;5030513;28;20059;-74
2023/12/11 00:10:46;;;;;;;1.30;0.35;;;9.70;99.90;;;;;;5026807;28;20025;-74
2023/12/11 00:13:12;;;;;;;2.25;0.70;;;9.70;99.90;;;;;;5024912;28;20044;-74
2023/12/11 00:15:39;;;;;;;0.20;0.13;;;9.70;99.90;;;;;;5022038;28;20032;-74
2023/12/11 00:18:05;;;;;;;1.08;0.40;;;9.60;99.90;;;;;;5023913;28;20036;-74
2023/12/11 00:20:32;;;;;;;0.30;0.20;;;9.70;99.90;;;;;;5028638;28;20037;-74
2023/12/11 00:22:59;;;;;;;0.52;0.35;;;9.60;99.90;;;;;;5025747;28;20022;-74
2023/12/11 00:25:27;;;;;;;0.15;0.15;;;9.60;99.90;;;;;;5028756;28;20053;-73
2023/12/11 00:27:53;;;;;;;0.95;0.47;;;9.60;99.90;;;;;;5023319;28;20021;-73
2023/12/11 00:30:19;;;;;;;1.33;0.40;;;9.60;99.90;;;;;;5027137;28;20411;-74
2023/12/11 00:32:44;;;;;;;0.52;0.43;;;9.60;99.90;;;;;;5015775;28;20035;-74
2023/12/11 00:35:10;;;;;;;0.43;0.20;;;9.60;99.90;;;;;;5023991;28;20037;-74
2023/12/11 00:37:36;;;;;;;8.13;0.65;;;9.60;99.90;;;;;;5026147;28;20029;-74
2023/12/11 00:40:02;;;;;;;0.47;0.38;;;9.50;99.90;;;;;;5027699;28;20068;-74
2023/12/11 00:42:28;;;;;;;2.47;0.60;;;9.50;99.90;;;;;;5027483;28;20022;-74
2023/12/11 00:44:54;;;;;;;4.20;0.40;;;9.60;99.90;;;;;;5031158;28;20052;-74
2023/12/11 00:47:22;;;;;;;0.50;0.45;;;9.50;99.90;;;;;;5031818;28;20501;-74
2023/12/11 00:49:48;;;;;;;1.33;0.57;;;9.70;99.90;;;;;;5022228;28;20022;-74
2023/12/11 00:52:14;;;;;;;0.30;0.28;;;9.80;99.90;;;;;;5024578;28;20037;-74
2023/12/11 00:54:40;;;;;;;1.63;0.30;;;10.00;99.90;;;;;;5023313;28;20371;-74
2023/12/11 00:57:06;;;;;;;0.20;0.15;;;10.20;99.90;;;;;;5026900;28;20022;-74
2023/12/11 00:59:31;;;;;;;0.52;0.15;;;10.30;99.90;;;;;;5026270;28;20505;-74
2023/12/11 01:01:57;;;;;;;2.45;0.50;;;10.30;99.90;;;;;;5026318;28;20022;-74
2023/12/11 01:04:23;;;;;;;3.22;0.32;;;10.30;99.90;;;;;;5026479;28;20037;-74
2023/12/11 01:06:49;;;;;;;3.00;0.40;;;10.40;99.90;;;;;;5026753;28;20022;-74
2023/12/11 01:09:14;;;;;;;0.68;0.30;;;10.50;99.90;;;;;;5023121;28;20026;-74
2023/12/11 01:11:40;;;;;;;0.38;0.20;;;10.50;99.90;;;;;;5021338;28;20868;-74
2023/12/11 01:14:06;;;;;;;0.47;0.38;;;10.40;99.90;;;;;;5027002;28;20033;-74
2023/12/11 01:16:32;;;;;;;0.38;0.22;;;10.40;99.90;;;;;;5028559;28;20021;-74
2023/12/11 01:18:58;;;;;;;0.47;0.20;;;10.40;99.90;;;;;;5026089;28;20041;-73
2023/12/11 01:21:23;;;;;;;0.43;0.35;;;10.40;99.90;;;;;;5025959;28;20034;-74
2023/12/11 01:23:49;;;;;;;7.85;0.77;;;10.40;99.90;;;;;;5026088;28;20168;-74
2023/12/11 01:26:15;;;;;;;0.20;0.20;;;10.40;99.90;;;;;;5026495;28;20017;-75
2023/12/11 01:28:41;;;;;;;0.77;0.20;;;10.50;99.90;;;;;;5042848;28;20497;-74
2023/12/11 01:31:06;;;;;;;2.38;0.60;;;10.40;99.90;;;;;;5024418;28;20105;-74
2023/12/11 01:33:32;;;;;;;0.20;0.20;;;10.30;99.90;;;;;;5027758;28;20029;-74
2023/12/11 01:35:58;;;;;;;0.68;0.40;;;10.30;99.90;;;;;;5027154;28;20030;-74
2023/12/11 01:38:24;;;;;;;2.00;0.40;;;10.40;99.90;;;;;;5022909;28;20037;-74
2023/12/11 01:40:50;;;;;;;0.35;0.30;;;10.40;99.90;;;;;;5023280;28;20033;-74
2023/12/11 01:43:20;;;;;;;1.35;0.20;;;10.40;99.90;;;;;;5018430;28;20471;-74
2023/12/11 01:46:13;;;;;;;0.43;0.40;;;10.30;99.90;;;;;;5022272;28;20363;-75
2023/12/11 01:48:40;;;;;;;0.20;0.20;;;10.20;99.90;;;;;;5038622;28;20068;-74
2023/12/11 01:51:09;;;;;;;0.63;0.20;;;10.20;99.90;;;;;;5025045;28;20116;-75
2023/12/11 01:53:35;;;;;;;0.20;0.20;;;10.20;99.90;;;;;;5018120;28;20049;-74
2023/12/11 01:56:02;;;;;;;0.10;0.10;;;10.20;99.90;;;;;;5004669;28;20064;-74
2023/12/11 01:58:29;;;;;;;8.45;0.65;;;10.30;99.90;;;;;;5006668;28;20490;-75
2023/12/11 02:00:55;;;;;;;3.13;0.10;;;10.40;99.90;;;;;;5005292;28;20044;-74
2023/12/11 02:03:22;;;;;;;0.32;0.30;;;10.30;99.90;;;;;;5022214;28;20107;-74
2023/12/11 02:05:49;;;;;;;4.57;0.85;;;10.50;99.90;;;;;;5023121;28;20080;-74
2023/12/11 02:08:18;;;;;;;0.55;0.30;;;10.50;99.90;;;;;;5023964;28;20425;-74
2023/12/11 02:10:44;;;;;;;0.20;0.20;;;10.50;99.90;;;;;;5022340;28;20059;-73
2023/12/11 02:13:10;;;;;;;0.88;0.52;;;10.40;99.90;;;;;;5005368;28;20025;-74
2023/12/11 02:15:46;;;;;;;3.10;0.30;;;10.50;99.90;;;;;;5021126;28;20033;-74
2023/12/11 02:18:15;;;;;;;0.20;0.20;;;10.50;99.90;;;;;;5023143;28;20025;-74
2023/12/11 02:20:42;;;;;;;3.10;0.57;;;10.40;99.90;;;;;;5011884;28;20041;-74
2023/12/11 02:23:43;;;;;;;0.80;0.80;;;10.40;99.90;;;;;;5019454;28;20064;-74
2023/12/11 02:26:18;;;;;;;3.38;0.30;;;10.40;99.90;;;;;;5020833;28;20144;-74
2023/12/11 02:28:45;;;;;;;0.20;0.20;;;10.40;99.90;;;;;;5020845;28;20037;-74
2023/12/11 02:31:11;;;;;;;1.33;0.20;;;10.40;99.90;;;;;;5019765;28;20075;-75
2023/12/11 02:33:37;;;;;;;0.68;0.35;;;10.30;99.90;;;;;;5038756;28;20060;-74
2023/12/11 02:36:04;;;;;;;0.22;0.22;;;10.30;99.90;;;;;;5026610;28;20124;-73
2023/12/11 02:38:30;;;;;;;1.10;0.30;;;10.40;99.90;;;;;;5021871;28;20034;-73
2023/12/11 02:40:55;;;;;;;1.85;0.70;;;10.50;99.90;;;;;;5024410;28;20032;-74
2023/12/11 02:43:21;;;;;;;0.35;0.20;;;10.60;99.90;;;;;;5024260;28;20035;-74
2023/12/11 02:45:47;;;;;;;0.30;0.17;;;10.60;99.90;;;;;;5021004;28;20030;-73
2023/12/11 02:48:13;;;;;;;0.50;0.30;;;10.60;99.90;;;;;;5026380;28;20505;-73
2023/12/11 02:50:39;;;;;;;0.32;0.20;;;10.60;99.90;;;;;;5021810;28;20030;-73
2023/12/11 02:53:05;;;;;;;3.90;0.52;;;10.60;99.90;;;;;;5019130;28;20029;-74
2023/12/11 02:55:31;;;;;;;0.30;0.30;;;10.60;99.90;;;;;;5023780;28;20029;-73
2023/12/11 02:58:03;;;;;;;0.70;0.32;;;10.50;99.90;;;;;;5019279;28;20091;-73
2023/12/11 03:00:30;;;;;;;4.53;0.30;;;10.50;99.90;;;;;;5023417;28;20047;-73
2023/12/11 03:02:56;;;;;;;3.50;0.95;;;10.50;99.90;;;;;;5022196;28;20018;-74
2023/12/11 03:05:23;;;;;;;0.75;0.30;;;10.40;99.90;;;;;;5023292;28;20038;-74
2023/12/11 03:07:49;;;;;;;0.38;0.20;;;10.40;99.90;;;;;;5021755;28;20025;-75
2023/12/11 03:10:15;;;;;;;1.75;0.52;;;10.50;99.90;;;;;;5019621;28;20393;-74
2023/12/11 03:12:41;;;;;;;0.95;0.50;;;10.60;99.90;;;;;;5030066;28;20052;-74
2023/12/11 03:15:09;;;;;;;0.68;0.68;;;10.60;99.90;;;;;;5020156;28;20486;-74
2023/12/11 03:17:35;;;;;;;2.85;0.70;;;10.70;99.90;;;;;;5023509;28;20113;-73
2023/12/11 03:20:01;;;;;;;1.20;0.52;;;10.70;99.90;;;;;;5021164;28;20033;-73
2023/12/11 03:22:28;;;;;;;0.88;0.40;;;10.80;99.90;;;;;;5006995;28;20029;-73
2023/12/11 03:24:55;;;;;;;5.35;0.73;;;10.80;99.90;;;;;;5017489;28;20029;-73
2023/12/11 03:27:21;;;;;;;4.05;0.63;;;10.90;99.90;;;;;;5018700;28;20030;-73
2023/12/11 03:29:48;;;;;;;0.93;0.28;;;10.90;99.90;;;;;;5001748;28;20104;-73
2023/12/11 03:32:15;;;;;;;6.40;0.95;;;10.90;99.90;;;;;;5004991;28;20021;-73
2023/12/11 03:34:41;;;;;;;1.15;0.63;;;10.80;99.90;;;;;;5021411;28;20057;-72
2023/12/11 03:37:07;;;;;;;1.77;0.40;;;10.80;99.90;;;;;;5003667;28;20049;-75
2023/12/11 03:39:33;;;;;;;2.95;0.82;;;10.80;99.90;;;;;;5019828;28;20474;-74
2023/12/11 03:41:59;;;;;;;2.15;1.15;;;10.80;99.90;;;;;;5022780;28;20175;-74
2023/12/11 03:44:24;;;;;;;8.55;0.52;;;10.70;99.90;;;;;;5019589;28;20421;-74
2023/12/11 03:46:50;;;;;;;5.20;0.70;;;10.50;99.90;;;;;;5026166;28;20053;-74
2023/12/11 03:49:18;;;;;;;1.75;0.77;;;10.00;99.90;;;;;;5021522;28;20025;-74
2023/12/11 03:51:44;;;;;;;9.57;0.70;;;9.60;99.90;;;;;;5023043;28;20063;-74
2023/12/11 03:54:10;;;;;;;0.30;0.20;;;9.40;99.90;;;;;;5020700;28;20072;-74
2023/12/11 03:56:38;;;;;;;0.68;0.50;;;9.20;99.90;;;;;;5015622;28;20171;-74
2023/12/11 03:59:04;;;;;;;0.20;0.20;;;9.10;99.90;;;;;;5019894;28;20043;-73
2023/12/11 04:01:30;;;;;;;1.25;0.50;;;9.00;99.90;;;;;;5020331;28;20532;-74
2023/12/11 04:03:55;;;;;;;3.63;0.30;;;8.90;99.90;;;;;;5021002;28;20386;-74
2023/12/11 04:06:21;;;;;;;0.80;0.60;;;8.80;99.90;;;;;;5024158;28;20117;-75
2023/12/11 04:08:47;;;;;;;2.42;0.68;;;8.80;99.90;;;;;;5023739;28;20033;-75
2023/12/11 04:11:13;;;;;;;0.32;0.30;;;8.80;99.90;;;;;;5025774;28;20108;-74
2023/12/11 04:13:39;;;;;;;1.80;0.85;;;8.80;99.90;;;;;;5041717;28;20033;-74
2023/12/11 04:16:05;;;;;;;4.93;0.65;;;8.80;99.90;;;;;;5022818;28;20083;-74
2023/12/11 04:18:32;;;;;;;2.08;0.60;;;8.80;99.90;;;;;;5024245;28;20368;-74
2023/12/11 04:20:58;;;;;;;1.05;0.57;;;8.80;99.90;;;;;;5024382;28;20034;-74
2023/12/11 04:23:25;;;;;;;1.02;0.47;;;8.90;99.90;;;;;;5023971;28;20108;-74
2023/12/11 04:25:53;;;;;;;2.28;0.50;;;8.90;99.90;;;;;;5043735;28;20033;-74
2023/12/11 04:28:19;;;;;;;8.10;1.00;;;9.00;99.90;;;;;;5022549;28;20060;-75
2023/12/11 04:30:46;;;;;;;1.67;0.82;;;9.00;99.90;;;;;;5004195;28;20060;-74
2023/12/11 04:33:11;;;;;;;0.80;0.30;;;9.10;99.90;;;;;;5006577;28;20056;-74
2023/12/11 04:35:37;;;;;;;2.83;0.40;;;9.10;99.90;;;;;;5023897;28;20792;-74
2023/12/11 04:38:03;;;;;;;6.45;0.70;;;9.10;99.90;;;;;;5022435;28;20053;-74
2023/12/11 04:40:29;;;;;;;0.52;0.38;;;9.20;99.90;;;;;;5028235;28;20094;-74
2023/12/11 04:42:55;;;;;;;0.57;0.47;;;9.20;99.90;;;;;;5009733;28;20022;-74
2023/12/11 04:45:20;;;;;;;7.57;0.80;;;9.30;99.90;;;;;;5024739;28;20506;-75
2023/12/11 04:47:46;;;;;;;4.30;1.52;;;9.30;99.90;;;;;;5026090;28;20061;-74
2023/12/11 04:50:12;;;;;;;0.63;0.40;;;9.30;99.90;;;;;;5028356;28;20036;-74
2023/12/11 04:52:38;;;;;;;2.28;0.82;;;9.30;99.90;;;;;;5026266;28;20132;-75
2023/12/11 04:55:04;;;;;;;1.30;0.73;;;9.30;99.90;;;;;;5027776;28;20025;-75
2023/12/11 04:57:30;;;;;;;1.88;0.73;;;9.30;99.90;;;;;;5026663;28;20033;-76
2023/12/11 04:59:56;;;;;;;1.85;0.75;;;9.30;99.90;;;;;;5026476;28;20045;-75
2023/12/11 05:02:21;;;;;;;2.67;0.47;;;9.30;99.90;;;;;;5027226;28;20104;-74
2023/12/11 05:04:47;;;;;;;1.58;0.82;;;9.30;99.90;;;;;;5022519;28;20054;-74
2023/12/11 05:07:13;;;;;;;1.92;0.63;;;9.30;99.90;;;;;;5020323;28;20033;-74
2023/12/11 05:09:39;;;;;;;1.05;0.60;;;9.30;99.90;;;;;;5024464;28;20025;-75
2023/12/11 05:12:05;;;;;;;1.23;0.70;;;9.20;99.90;;;;;;5027845;28;20465;-75
2023/12/11 05:14:31;;;;;;;2.28;0.75;;;9.20;99.90;;;;;;5024926;28;20021;-75
2023/12/11 05:16:58;;;;;;;0.90;0.65;;;9.10;99.90;;;;;;5004489;28;20157;-75
2023/12/11 05:19:24;;;;;;;0.70;0.40;;;9.10;99.90;;;;;;5040640;28;20018;-75
2023/12/11 05:21:49;;;;;;;0.52;0.22;;;9.00;99.90;;;;;;5025153;28;20536;-74
2023/12/11 05:24:15;;;;;;;0.30;0.30;;;9.00;99.90;;;;;;5026912;28;20026;-75
2023/12/11 05:26:41;;;;;;;0.75;0.40;;;8.90;99.90;;;;;;5027539;28;20025;-74
2023/12/11 05:29:07;;;;;;;1.00;0.70;;;9.00;99.90;;;;;;5003794;28;20029;-75
2023/12/11 05:31:33;;;;;;;4.53;0.50;;;9.00;99.90;;;;;;5025653;28;20457;-73
2023/12/11 05:33:59;;;;;;;1.38;0.47;;;8.90;99.90;;;;;;5028526;28;20034;-74
2023/12/11 05:36:25;;;;;;;1.17;0.60;;;8.90;99.90;;;;;;5025601;28;20040;-75
2023/12/11 05:38:51;;;;;;;0.55;0.50;;;8.80;99.90;;;;;;5024114;28;20040;-76
2023/12/11 05:41:18;;;;;;;1.45;0.40;;;8.80;99.90;;;;;;5025072;28;20091;-75
2023/12/11 05:43:43;;;;;;;2.55;0.95;;;8.80;99.90;;;;;;5028766;28;20034;-75
2023/12/11 05:46:10;;;;;;;0.63;0.38;;;8.70;99.90;;;;;;5026341;28;20092;-74
2023/12/11 05:48:36;;;;;;;1.30;0.52;;;8.70;99.90;;;;;;5032453;28;20040;-74
2023/12/11 05:51:03;;;;;;;1.10;0.50;;;8.70;99.90;;;;;;5023369;28;20033;-75
2023/12/11 05:53:28;;;;;;;0.20;0.20;;;8.60;99.90;;;;;;5030735;28;20611;-75
2023/12/11 05:55:54;;;;;;;0.73;0.60;;;8.70;99.90;;;;;;5030797;28;20072;-74
2023/12/11 05:58:20;;;;;;;2.38;0.70;;;8.70;99.90;;;;;;5012563;28;20033;-75
2023/12/11 06:00:46;;;;;;;6.03;0.90;;;8.80;99.90;;;;;;5025412;28;20386;-75
2023/12/11 06:03:11;;;;;;;0.60;0.45;;;8.90;99.90;;;;;;5009771;28;20076;-75
2023/12/11 06:05:37;;;;;;;0.38;0.30;;;9.00;99.90;;;;;;5031816;28;20036;-75
2023/12/11 06:08:04;;;;;;;1.48;0.65;;;9.40;99.90;;;;;;5034559;28;20112;-74
2023/12/11 06:10:30;;;;;;;1.98;0.40;;;9.90;99.90;;;;;;5044424;28;20036;-75
2023/12/11 06:12:56;;;;;;;0.73;0.47;;;10.20;99.90;;;;;;5028067;28;20038;-75
2023/12/11 06:15:22;;;;;;;7.03;0.63;;;10.70;99.90;;;;;;5026575;28;20037;-75
2023/12/11 06:17:48;;;;;;;1.17;0.35;;;10.90;99.90;;;;;;5030624;28;20044;-74
2023/12/11 06:20:14;;;;;;;0.93;0.52;;;11.10;99.90;;;;;;5022921;28;20671;-75
2023/12/11 06:22:40;;;;;;;0.75;0.32;;;11.20;99.90;;;;;;5024465;28;20026;-75
2023/12/11 06:25:06;;;;;;;1.55;0.63;;;11.20;99.90;;;;;;5006418;28;20705;-74
2023/12/11 06:27:32;;;;;;;0.98;0.17;;;11.40;99.90;;;;;;5032459;28;20025;-75
2023/12/11 06:29:59;;;;;;;0.32;0.13;;;11.30;99.90;;;;;;5032608;28;20028;-74
2023/12/11 06:32:25;;;;;;;0.20;0.20;;;11.30;99.90;;;;;;5023556;28;20041;-74
2023/12/11 06:34:51;;;;;;;1.20;0.55;;;11.30;99.90;;;;;;5031231;28;20038;-74
2023/12/11 06:37:17;;;;;;;1.75;0.55;;;11.30;99.90;;;;;;5029914;28;20131;-74
2023/12/11 06:39:42;;;;;;;8.65;0.40;;;11.30;99.90;;;;;;5025691;28;20124;-74
2023/12/11 06:42:08;;;;;;;0.55;0.30;;;11.40;99.90;;;;;;5030471;28;20021;-74
2023/12/11 06:44:36;;;;;;;9.95;0.88;;;11.40;99.90;;;;;;5026607;28;20510;-74
2023/12/11 06:47:01;;;;;;;0.70;0.30;;;11.40;99.90;;;;;;5044157;28;20026;-73
2023/12/11 06:49:27;;;;;;;2.90;0.85;;;11.40;99.90;;;;;;5028156;28;20489;-73
2023/12/11 06:51:55;;;;;;;2.53;0.28;;;11.50;99.90;;;;;;5030159;28;20033;-73
2023/12/11 06:54:21;;;;;;;1.08;0.90;;;11.60;99.90;;;;;;5009181;28;20402;-74
2023/12/11 06:56:47;;;;;;;1.90;0.40;;;11.50;99.90;;;;;;5031670;28;20022;-73
2023/12/11 06:59:13;;;;;;;1.27;0.20;;;11.60;99.90;;;;;;5000375;28;20030;-74
2023/12/11 07:01:39;;;;;;;0.52;0.30;;;11.60;99.90;;;;;;5017214;28;20026;-73
2023/12/11 07:04:05;;;;;;;1.10;0.57;;;11.60;99.90;;;;;;5027111;28;20025;-72
2023/12/11 07:06:31;;;;;;;0.88;0.45;;;11.70;99.90;;;;;;5025474;28;20037;-72
2023/12/11 07:08:57;;;;;;;1.75;0.30;;;11.60;99.90;;;;;;5029815;28;20036;-73
2023/12/11 07:11:24;;;;;;;7.50;0.65;;;11.60;99.90;;;;;;5030899;28;20038;-73
2023/12/11 07:13:50;;;;;;;3.30;0.50;;;11.50;99.90;;;;;;5012921;28;20030;-72
2023/12/11 07:16:16;;;;;;;1.50;0.28;;;11.50;99.90;;;;;;5031191;28;20567;-69
2023/12/11 07:18:43;;;;;;;4.63;0.60;;;11.50;99.90;;;;;;5029968;28;20310;-69
2023/12/11 07:21:11;;;;;;;0.63;0.25;;;11.40;99.90;;;;;;5031158;28;20421;-76
2023/12/11 07:23:38;;;;;;;1.05;0.45;;;11.40;99.90;;;;;;5022192;28;20029;-77
2023/12/11 07:26:10;;;;;;;4.30;0.45;;;11.40;99.90;;;;;;5045988;28;20067;-76
2023/12/11 07:28:37;;;;;;;5.68;0.95;;;11.50;99.90;;;;;;5042286;28;20030;-76
2023/12/11 07:31:05;;;;;;;0.98;0.40;;;11.60;99.90;;;;;;5025893;28;20033;-76
2023/12/11 07:33:31;;;;;;;0.75;0.47;;;11.50;99.90;;;;;;5030376;28;20064;-76
2023/12/11 07:35:58;;;;;;;1.63;0.38;;;11.60;99.90;;;;;;5025651;28;20053;-76
2023/12/11 07:38:25;;;;;;;1.33;0.38;;;11.60;99.90;;;;;;5029423;28;20029;-76
2023/12/11 07:40:54;;;;;;;4.05;1.02;;;11.60;99.90;;;;;;5030497;28;20026;-77
2023/12/11 07:43:20;;;;;;;5.40;0.45;;;11.60;99.90;;;;;;5016440;28;20494;-76
2023/12/11 07:45:46;;;;;;;0.68;0.25;;;11.60;99.90;;;;;;5015369;28;20033;-74
2023/12/11 07:48:11;;;;;;;2.70;0.52;;;11.60;99.90;;;;;;5023199;28;20493;-73
2023/12/11 07:50:39;;;;;;;5.15;0.95;;;11.70;99.90;;;;;;5017839;28;20116;-72
2023/12/11 07:53:05;;;;;;;8.30;1.65;;;11.70;99.90;;;;;;5024708;28;20026;-72
2023/12/11 07:55:31;;;;;;;0.63;0.40;;;11.70;99.90;;;;;;5030627;28;20045;-73
2023/12/11 07:57:57;;;;;;;1.25;0.50;;;11.70;99.90;;;;;;5033812;28;20497;-73
2023/12/11 08:00:23;;;;;;;4.03;0.93;;;11.70;99.90;;;;;;5032255;28;20128;-73
2023/12/11 08:02:49;;;;;;;10.45;0.85;;;11.70;99.90;;;;;;5029004;28;20736;-73
2023/12/11 08:05:15;;;;;;;8.82;0.50;;;11.80;99.90;;;;;;5029026;28;20044;-71
2023/12/11 08:07:40;;;;;;;3.33;0.73;;;11.70;99.90;;;;;;5033406;28;20025;-72
2023/12/11 08:10:07;;;;;;;5.38;0.63;;;11.70;99.90;;;;;;5031835;28;20061;-72
2023/12/11 08:12:33;;;;;;;2.65;0.30;;;11.70;99.90;;;;;;5031420;28;20052;-72
2023/12/11 08:14:59;;;;;;;2.53;0.75;;;11.80;99.90;;;;;;5024731;28;20037;-71
2023/12/11 08:17:25;;;;;;;3.60;0.70;;;11.80;99.90;;;;;;5033655;28;20069;-72
2023/12/11 08:19:51;;;;;;;5.18;0.68;;;11.90;99.90;;;;;;5025591;28;20037;-72
2023/12/11 08:22:17;;;;;;;2.75;0.80;;;11.90;99.90;;;;;;5041446;28;20053;-72
2023/12/11 08:24:43;;;;;;;4.30;0.82;;;11.90;99.90;;;;;;5033517;28;20088;-72
2023/12/11 08:27:09;;;;;;;3.88;0.63;;;11.80;99.90;;;;;;5031707;28;20501;-72
2023/12/11 08:29:38;;;;;;;2.50;0.47;;;11.80;99.90;;;;;;5030878;28;20065;-72
2023/12/11 08:32:04;;;;;;;2.75;0.52;;;11.90;99.90;;;;;;5033783;28;20359;-72
2023/12/11 08:34:29;;;;;;;7.35;0.65;;;12.10;99.90;;;;;;5014783;28;20033;-73
2023/12/11 08:36:56;;;;;;;1.77;0.50;;;12.20;99.90;;;;;;5026711;28;20037;-71
2023/12/11 08:39:23;;;;;;;1.67;0.77;;;12.20;99.90;;;;;;5025610;28;20041;-81
2023/12/11 08:41:49;;;;;;;3.20;0.75;;;12.10;99.90;;;;;;5025894;28;20064;-73
2023/12/11 08:44:16;;;;;;;1.85;0.65;;;12.10;99.90;;;;;;5024150;28;20091;-74
2023/12/11 08:46:43;;;;;;;7.85;1.70;;;12.10;99.90;;;;;;5024200;28;20025;-73
2023/12/11 08:49:10;;;;;;;2.65;1.35;;;12.10;99.90;;;;;;5024424;28;20074;-72
2023/12/11 08:51:36;;;;;;;0.35;0.35;;;12.20;99.90;;;;;;5031755;28;20044;-72
2023/12/11 08:54:02;;;;;;;2.15;0.63;;;12.10;99.90;;;;;;5027378;28;20409;-70
2023/12/11 08:56:27;;;;;;;0.63;0.35;;;12.10;99.90;;;;;;5015238;28;20393;-74
2023/12/11 08:58:53;;;;;;;2.35;0.50;;;12.10;99.90;;;;;;5010735;28;20030;-74
2023/12/11 09:01:19;;;;;;;0.30;0.20;;;12.00;99.90;;;;;;5030618;28;20044;-71
2023/12/11 09:03:46;;;;;;;1.40;0.30;;;12.00;99.90;;;;;;5032819;28;20038;-70
2023/12/11 09:06:14;;;;;;;0.22;0.20;;;12.10;99.90;;;;;;5028451;28;20042;-72
2023/12/11 09:08:41;;;;;;;8.20;0.90;;;12.10;99.90;;;;;;5032032;28;20033;-71
2023/12/11 09:11:06;;;;;;;1.70;0.63;;;12.20;99.90;;;;;;5029048;28;20030;-72
2023/12/11 09:13:32;;;;;;;1.48;0.45;;;12.30;99.90;;;;;;5031741;28;20579;-72
2023/12/11 09:15:58;;;;;;;1.20;0.73;;;12.30;99.90;;;;;;5027959;28;20041;-73
2023/12/11 09:18:24;;;;;;;6.55;0.90;;;12.40;99.90;;;;;;5020403;28;20827;-74
2023/12/11 09:20:50;;;;;;;4.07;0.57;;;12.50;99.90;;;;;;5026802;28;20680;-72
2023/12/11 09:23:16;;;;;;;6.18;2.53;;;12.50;99.90;;;;;;5023843;28;20030;-72
2023/12/11 09:25:42;;;;;;;5.72;0.88;;;12.60;99.90;;;;;;5027545;28;20041;-72
2023/12/11 09:28:08;;;;;;;4.43;1.23;;;12.60;99.90;;;;;;5029606;28;20142;-74
2023/12/11 09:30:34;;;;;;;4.28;0.55;;;12.70;99.90;;;;;;5018145;28;20080;-75
2023/12/11 09:33:00;;;;;;;2.05;0.65;;;12.70;99.90;;;;;;5033484;28;20036;-76
2023/12/11 09:35:25;;;;;;;3.63;0.80;;;12.80;99.90;;;;;;5024463;28;20040;-72
2023/12/11 09:37:51;;;;;;;9.43;0.93;;;12.80;99.90;;;;;;5031665;28;20033;-73
2023/12/11 09:40:18;;;;;;;9.38;0.90;;;12.80;99.90;;;;;;5031094;28;20069;-71
2023/12/11 09:42:45;;;;;;;8.93;1.23;;;12.80;99.90;;;;;;5006358;28;20432;-72
2023/12/11 09:45:15;;;;;;;15.52;1.27;;;12.80;99.90;;;;;;5030419;28;20076;-74
2023/12/11 09:47:48;;;;;;;3.60;0.63;;;12.80;99.90;;;;;;5014727;28;20037;-72
2023/12/11 09:50:14;;;;;;;12.90;1.02;;;12.70;99.90;;;;;;5010981;28;20108;-73
2023/12/11 09:52:41;;;;;;;0.75;0.47;;;12.90;99.90;;;;;;5029257;28;20033;-73
2023/12/11 09:55:08;;;;;;;9.02;1.50;;;13.30;99.90;;;;;;5022912;28;20275;-73
2023/12/11 09:57:36;;;;;;;2.80;0.80;;;13.90;99.90;;;;;;5024149;28;20102;-73
2023/12/11 10:00:04;;;;;;;7.05;1.23;;;13.70;99.90;;;;;;5022633;28;20494;-73
2023/12/11 10:02:30;;;;;;;7.78;1.60;;;13.30;99.90;;;;;;5030464;28;20034;-73
2023/12/11 10:05:04;;;;;;;8.48;1.20;;;13.20;99.90;;;;;;5029149;28;20029;-73
2023/12/11 10:07:32;;;;;;;7.47;1.15;;;13.10;99.90;;;;;;5029588;28;20082;-73
2023/12/11 10:09:59;;;;;;;8.10;1.30;;;13.00;99.90;;;;;;5027996;28;20377;-73
2023/12/11 10:12:25;;;;;;;3.65;0.63;;;12.90;99.90;;;;;;5030117;28;20060;-73
2023/12/11 10:15:03;;;;;;;2.92;1.10;;;12.90;99.90;;;;;;5022025;28;20448;-74
2023/12/11 10:17:31;;;;;;;5.35;1.20;;;12.90;99.90;;;;;;5015997;28;20041;-74
2023/12/11 10:19:57;;;;;;;16.33;1.13;;;12.90;99.90;;;;;;5022799;28;20033;-74
2023/12/11 10:22:31;;;;;;;13.75;3.95;;;12.90;99.90;;;;;;5030694;28;20498;-74
2023/12/11 10:24:58;;;;;;;6.93;1.80;;;13.00;99.90;;;;;;5029636;28;20041;-74
2023/12/11 10:27:26;;;;;;;14.80;3.70;;;13.00;99.90;;;;;;5028885;28;20036;-74
2023/12/11 10:30:12;;;;;;;6.75;2.03;;;13.10;99.90;;;;;;5028493;28;20060;-74
2023/12/11 10:32:39;;;;;;;5.65;1.42;;;13.10;99.90;;;;;;5021423;28;20040;-73
2023/12/11 10:35:06;;;;;;;6.13;0.70;;;13.10;99.90;;;;;;5021534;28;20040;-73
2023/12/11 10:37:36;;;;;;;12.15;1.48;;;13.10;99.90;;;;;;5029206;28;20049;-74
2023/12/11 10:40:03;;;;;;;4.07;0.55;;;13.10;99.90;;;;;;5019203;28;20053;-73
2023/12/11 10:42:29;;;;;;;11.80;1.73;;;13.10;99.90;;;;;;5028962;28;20687;-73
2023/12/11 10:44:56;;;;;;;18.50;3.15;;;13.10;99.90;;;;;;5012562;28;20571;-73
2023/12/11 10:47:22;;;;;;;17.05;4.32;;;13.10;99.90;;;;;;5029147;28;20044;-73
2023/12/11 10:49:49;;;;;;;10.98;2.20;;;13.20;99.90;;;;;;5019496;28;20034;-73
2023/12/11 10:52:16;;;;;;;4.43;0.68;;;13.10;99.90;;;;;;5029082;28;20425;-73
2023/12/11 10:54:42;;;;;;;6.78;2.33;;;13.00;99.90;;;;;;5014112;28;20037;-73
2023/12/11 10:57:15;;;;;;;8.15;2.28;;;13.10;99.90;;;;;;5025681;28;20033;-73
2023/12/11 10:59:41;;;;;;;10.52;2.03;;;13.10;99.90;;;;;;5014938;28;20037;-72
2023/12/11 11:02:09;;;;;;;7.38;1.73;;;13.20;99.90;;;;;;5004325;28;20075;-73
2023/12/11 11:04:41;;;;;;;11.05;1.63;;;13.10;99.90;;;;;;5013831;28;20393;-73
2023/12/11 11:07:25;;;;;;;9.85;0.93;;;13.10;99.90;;;;;;5006023;28;20108;-73
2023/12/11 11:10:17;;;;;;;3.83;0.82;;;13.20;99.90;;;;;;5013926;28;20040;-73
2023/12/11 11:12:54;;;;;;;9.57;1.88;;;13.20;99.90;;;;;;5023655;28;20038;-73
2023/12/11 11:15:24;;;;;;;8.52;1.10;;;13.20;99.90;;;;;;5029304;28;20355;-72
2023/12/11 11:18:09;;;;;;;7.33;0.70;;;13.30;99.90;;;;;;5031216;28;20029;-73
2023/12/11 11:20:39;;;;;;;9.65;1.40;;;13.20;99.90;;;;;;5033954;28;20041;-73
2023/12/11 11:23:17;;;;;;;5.15;1.42;;;13.20;99.90;;;;;;5034108;28;20393;-72
2023/12/11 11:25:52;;;;;;;9.15;0.98;;;13.10;99.90;;;;;;5026667;28;20565;-73
2023/12/11 11:28:41;;;;;;;13.23;1.38;;;13.10;99.90;;;;;;5032936;28;20033;-73
2023/12/11 11:31:11;;;;;;;7.72;1.23;;;13.10;99.90;;;;;;5034038;28;20026;-73
2023/12/11 11:33:47;;;;;;;3.63;0.70;;;13.10;99.90;;;;;;5033642;28;20044;-75
2023/12/11 11:36:18;;;;;;;6.38;1.17;;;13.10;99.90;;;;;;5033859;28;20036;-73
2023/12/11 11:38:51;;;;;;;;;;;13.10;99.90;;;;;;5032235;28;20037;-73
2023/12/11 11:41:25;;;;;;;4.43;1.27;;;13.10;99.90;;;;;;5029975;28;20015;-75
2023/12/11 11:44:08;;;;;;;7.18;1.08;;;13.00;99.90;;;;;;5023246;28;20394;-73
2023/12/11 11:46:55;;;;;;;12.73;1.05;;;13.10;99.90;;;;;;5033435;28;20132;-73
2023/12/11 11:49:36;;;;;;;12.25;2.42;;;13.10;99.90;;;;;;5029100;28;20100;-73
2023/12/11 11:52:09;;;;;;;4.13;1.02;;;13.00;99.90;;;;;;5033012;28;20108;-73
2023/12/11 11:54:39;;;;;;;8.32;1.70;;;13.10;99.90;;;;;;5031887;28;20124;-73
2023/12/11 11:57:08;;;;;;;1.45;0.85;;;13.10;99.90;;;;;;5028656;28;20118;-73
2023/12/11 11:59:44;;;;;;;8.93;1.20;;;13.10;99.90;;;;;;5014674;28;20033;-73
2023/12/11 12:02:10;;;;;;;5.55;0.80;;;13.00;99.90;;;;;;5032864;28;20038;-72
2023/12/11 12:04:36;;;;;;;5.68;0.75;;;13.10;99.90;;;;;;5031885;28;20035;-72
2023/12/11 12:07:05;;;;;;;10.88;0.73;;;13.00;99.90;;;;;;5031916;28;20029;-72
2023/12/11 12:09:33;;;;;;;6.75;1.20;;;13.00;99.90;;;;;;5030813;28;20488;-73
2023/12/11 12:12:00;;;;;;;4.97;0.82;;;13.10;99.90;;;;;;5013439;28;20064;-72
2023/12/11 12:14:27;;;;;;;5.80;0.95;;;13.10;99.90;;;;;;5024767;28;20025;-72
2023/12/11 12:16:53;;;;;;;1.98;1.20;;;13.10;99.90;;;;;;5030038;28;20120;-73
2023/12/11 12:19:34;;;;;;;8.60;1.52;;;13.10;99.90;;;;;;5029624;28;20041;-73
2023/12/11 12:22:02;;;;;;;;;;;13.00;99.90;;;;;;5030615;28;20112;-72
2023/12/11 12:24:29;;;;;;;7.18;1.33;;;13.10;99.90;;;;;;5031588;28;20370;-72
2023/12/11 12:27:00;;;;;;;10.43;0.85;;;13.20;99.90;;;;;;5012366;28;20034;-73
2023/12/11 12:29:28;;;;;;;1.45;0.80;;;13.20;99.90;;;;;;5027979;28;20757;-72
2023/12/11 12:31:54;;;;;;;2.50;0.50;;;13.20;99.90;;;;;;5021280;28;20061;-72
2023/12/11 12:34:21;;;;;;;5.32;0.70;;;13.20;99.90;;;;;;5022154;28;20041;-72
2023/12/11 12:36:47;;;;;;;10.77;0.73;;;13.20;99.90;;;;;;5023930;28;20030;-72
2023/12/11 12:39:17;;;;;;;13.90;2.30;;;13.20;99.90;;;;;;5023783;28;20438;-72
2023/12/11 12:41:43;;;;;;;4.53;1.05;;;13.30;99.90;;;;;;5023893;28;20482;-72
2023/12/11 12:44:09;;;;;;;4.20;0.68;;;13.30;99.90;;;;;;5029191;28;20087;-72
2023/12/11 12:46:40;;;;;;;7.53;0.90;;;13.30;99.90;;;;;;5031351;28;20040;-72
2023/12/11 12:49:15;;;;;;;4.88;1.23;;;13.30;99.90;;;;;;5031393;28;20025;-72
2023/12/11 12:51:47;;;;;;;1.35;0.70;;;13.30;99.90;;;;;;5026101;28;20052;-72